createdAt,value
2022-11-20T00:01:40.768Z,4.88
2022-11-20T00:06:42.146Z,4.95
2022-11-20T00:11:43.528Z,4.91
2022-11-20T00:16:44.866Z,4.79
2022-11-20T00:21:46.245Z,4.79
2022-11-20T00:26:47.667Z,4.82
2022-11-20T00:31:49.011Z,4.84
2022-11-20T00:36:50.346Z,4.88
2022-11-20T00:41:51.697Z,4.80
2022-11-20T00:46:53.064Z,4.83
2022-11-20T00:51:54.498Z,4.88
2022-11-20T00:56:56.016Z,4.95
2022-11-20T01:01:57.337Z,4.99
2022-11-20T01:06:58.799Z,4.99
2022-11-20T01:12:01.128Z,4.93
2022-11-20T01:17:02.480Z,4.84
2022-11-20T01:22:03.828Z,4.79
2022-11-20T01:27:05.129Z,4.88
2022-11-20T01:32:06.522Z,4.81
2022-11-20T01:37:07.902Z,4.62
2022-11-20T01:42:27.990Z,4.44
2022-11-20T01:47:41.425Z,4.32
2022-11-20T01:52:53.528Z,4.35
2022-11-20T01:57:55.407Z,4.26
2022-11-20T02:03:01.530Z,4.30
2022-11-20T02:08:05.340Z,4.31
2022-11-20T02:13:25.772Z,4.39
2022-11-20T02:18:27.621Z,4.18
2022-11-20T02:23:37.459Z,4.10
2022-11-20T02:28:38.956Z,4.06
2022-11-20T02:33:40.299Z,3.96
2022-11-20T02:38:42.638Z,3.87
2022-11-20T02:43:44.011Z,3.83
2022-11-20T02:48:45.508Z,3.82
2022-11-20T02:53:53.094Z,3.71
2022-11-20T02:58:57.124Z,3.60
2022-11-20T03:03:58.699Z,3.62
2022-11-20T03:09:00.229Z,3.74
2022-11-20T03:14:06.046Z,3.81
2022-11-20T03:19:07.900Z,3.85
2022-11-20T03:24:09.831Z,3.82
2022-11-20T03:29:11.625Z,3.78
2022-11-20T03:34:13.105Z,3.68
2022-11-20T03:39:14.453Z,3.71
2022-11-20T03:44:15.884Z,3.71
2022-11-20T03:49:17.216Z,3.82
2022-11-20T03:54:18.576Z,3.93
2022-11-20T03:59:20.173Z,3.96
2022-11-20T04:04:21.811Z,3.98
2022-11-20T04:09:23.397Z,3.93
2022-11-20T04:14:25.062Z,3.92
2022-11-20T04:19:26.450Z,3.83
2022-11-20T04:24:27.822Z,3.92
2022-11-20T04:29:29.241Z,4.02
2022-11-20T04:34:30.874Z,4.00
2022-11-20T04:39:32.288Z,4.00
2022-11-20T04:44:33.650Z,4.05
2022-11-20T04:49:35.063Z,4.13
2022-11-20T04:54:36.439Z,4.18
2022-11-20T04:59:37.777Z,4.23
2022-11-20T05:04:39.290Z,4.24
2022-11-20T05:09:40.641Z,4.25
2022-11-20T05:14:41.976Z,4.22
2022-11-20T05:19:43.529Z,4.25
2022-11-20T05:30:02.573Z,4.28
2022-11-20T05:35:04.143Z,4.23
2022-11-20T05:40:06.204Z,4.20
2022-11-20T05:45:08.239Z,4.25
2022-11-20T05:50:09.743Z,4.23
2022-11-20T05:55:11.191Z,4.16
2022-11-20T06:00:13.502Z,4.13
2022-11-20T06:05:15.043Z,3.98
2022-11-20T06:10:16.544Z,4.10
2022-11-20T06:15:17.882Z,4.17
2022-11-20T06:20:21.812Z,4.20
2022-11-20T06:25:23.215Z,4.30
2022-11-20T06:30:24.584Z,4.35
2022-11-20T06:35:25.979Z,4.42
2022-11-20T06:40:27.344Z,4.49
2022-11-20T06:45:28.690Z,4.51
2022-11-20T06:50:30.167Z,4.55
2022-11-20T06:55:32.678Z,4.60
2022-11-20T07:00:34.122Z,4.58
2022-11-20T07:05:36.536Z,4.61
2022-11-20T07:10:37.997Z,4.71
2022-11-20T07:15:39.421Z,4.70
2022-11-20T07:20:40.809Z,4.67
2022-11-20T07:25:42.292Z,4.60
2022-11-20T07:30:43.634Z,4.57
2022-11-20T07:35:45.002Z,4.61
2022-11-20T07:40:46.354Z,4.65
2022-11-20T07:45:47.727Z,4.60
2022-11-20T07:50:49.103Z,4.57
2022-11-20T07:55:53.257Z,4.65
2022-11-20T08:00:54.719Z,4.70
2022-11-20T08:06:00.291Z,4.69
2022-11-20T08:11:20.497Z,4.50
2022-11-20T08:16:22.661Z,4.63
2022-11-20T08:21:24.806Z,4.47
2022-11-20T08:26:27.127Z,4.55
2022-11-20T08:31:28.914Z,4.60
2022-11-20T08:36:34.197Z,4.84
2022-11-20T08:41:37.613Z,4.83
2022-11-20T08:46:41.922Z,4.84
2022-11-20T08:51:43.360Z,4.81
2022-11-20T08:56:44.772Z,4.80
2022-11-20T09:01:46.137Z,4.97
2022-11-20T09:06:51.722Z,5.25
2022-11-20T09:11:53.211Z,5.50
2022-11-20T09:16:54.554Z,5.71
2022-11-20T09:21:59.706Z,5.74
2022-11-20T09:27:05.808Z,5.73
2022-11-20T09:32:07.271Z,5.65
2022-11-20T09:37:08.677Z,5.78
2022-11-20T09:42:38.340Z,5.81
2022-11-20T09:48:04.517Z,5.92
2022-11-20T09:53:20.812Z,5.98
2022-11-20T09:58:46.570Z,6.20
2022-11-20T10:03:56.652Z,6.37
2022-11-20T10:09:07.138Z,6.46
2022-11-20T10:14:24.838Z,6.66
2022-11-20T10:19:38.243Z,6.82
2022-11-20T10:24:52.698Z,6.64
2022-11-20T10:30:14.286Z,6.51
2022-11-20T10:35:34.421Z,6.49
2022-11-20T10:40:45.150Z,6.63
2022-11-20T10:46:06.026Z,6.84
2022-11-20T10:51:30.088Z,7.01
2022-11-20T10:56:49.884Z,7.13
2022-11-20T11:01:51.682Z,7.22
2022-11-20T11:06:59.617Z,7.28
2022-11-20T11:12:05.858Z,7.43
2022-11-20T11:17:21.568Z,7.23
2022-11-20T11:22:23.019Z,7.14
2022-11-20T11:27:24.453Z,7.14
2022-11-20T11:32:27.430Z,7.05
2022-11-20T11:37:35.694Z,7.32
2022-11-20T11:42:44.212Z,7.55
2022-11-20T11:47:52.470Z,7.71
2022-11-20T11:53:02.806Z,7.81
2022-11-20T11:58:17.327Z,7.88
2022-11-20T12:03:25.723Z,7.94
2022-11-20T12:08:49.262Z,8.05
2022-11-20T12:13:59.300Z,8.13
2022-11-20T12:19:00.747Z,8.26
2022-11-20T12:24:21.421Z,8.30
2022-11-20T12:29:22.917Z,8.37
2022-11-20T12:34:56.862Z,8.44
2022-11-20T12:40:16.922Z,8.40
2022-11-20T12:45:55.100Z,8.39
2022-11-20T12:51:22.040Z,8.29
2022-11-20T12:56:26.249Z,8.24
2022-11-20T13:01:41.783Z,8.21
2022-11-20T13:06:44.979Z,8.24
2022-11-20T13:11:52.770Z,8.29
2022-11-20T13:17:14.217Z,8.32
2022-11-20T13:22:44.050Z,8.37
2022-11-20T13:27:49.938Z,8.27
2022-11-20T13:32:58.396Z,8.14
2022-11-20T13:38:01.877Z,8.21
2022-11-20T13:43:23.832Z,8.24
2022-11-20T13:48:30.156Z,8.27
2022-11-20T13:53:54.475Z,8.21
2022-11-20T13:59:05.685Z,8.24
2022-11-20T14:04:10.294Z,8.18
2022-11-20T14:09:14.052Z,8.19
2022-11-20T14:14:20.122Z,8.18
2022-11-20T14:19:21.482Z,8.17
2022-11-20T14:24:25.425Z,8.12
2022-11-20T14:29:35.370Z,8.10
2022-11-20T14:34:41.573Z,8.10
2022-11-20T14:39:48.693Z,8.10
2022-11-20T14:44:51.790Z,8.08
2022-11-20T14:49:55.777Z,8.07
2022-11-20T14:55:02.061Z,8.04
2022-11-20T15:00:15.421Z,8.01
2022-11-20T15:05:19.057Z,8.01
2022-11-20T15:10:26.043Z,8.01
2022-11-20T15:15:44.993Z,7.97
2022-11-20T15:20:47.021Z,7.97
2022-11-20T15:25:49.474Z,8.03
2022-11-20T15:30:51.234Z,8.06
2022-11-20T15:35:52.605Z,8.09
2022-11-20T15:40:53.974Z,7.98
2022-11-20T15:46:00.236Z,7.91
2022-11-20T15:51:22.267Z,7.89
2022-11-20T15:56:24.279Z,7.90
2022-11-20T16:01:25.681Z,7.97
2022-11-20T16:06:27.076Z,7.99
2022-11-20T16:11:28.417Z,8.02
2022-11-20T16:16:33.380Z,8.03
2022-11-20T16:21:35.711Z,8.04
2022-11-20T16:26:37.820Z,8.05
2022-11-20T16:31:40.159Z,8.04
2022-11-20T16:36:43.055Z,8.06
2022-11-20T16:41:44.415Z,8.06
2022-11-20T16:46:45.764Z,8.12
2022-11-20T16:51:47.120Z,8.13
2022-11-20T16:56:48.638Z,8.01
2022-11-20T17:01:50.595Z,7.88
2022-11-20T17:06:52.035Z,7.56
2022-11-20T17:11:53.460Z,7.24
2022-11-20T17:16:54.831Z,7.19
2022-11-20T17:21:56.183Z,7.32
2022-11-20T17:26:57.607Z,7.44
2022-11-20T17:31:59.065Z,7.51
2022-11-20T17:37:00.447Z,7.50
2022-11-20T17:42:20.856Z,7.52
2022-11-20T17:47:22.452Z,7.42
2022-11-20T17:52:24.028Z,7.44
2022-11-20T17:57:43.944Z,7.47
2022-11-20T18:02:45.620Z,7.54
2022-11-20T18:07:47.102Z,7.59
2022-11-20T18:12:48.624Z,7.45
2022-11-20T18:17:50.137Z,7.49
2022-11-20T18:22:51.485Z,7.52
2022-11-20T18:27:52.899Z,7.60
2022-11-20T18:32:55.400Z,7.59
2022-11-20T18:37:56.890Z,7.60
2022-11-20T18:43:16.677Z,7.61
2022-11-20T18:48:18.058Z,7.59
2022-11-20T18:53:19.457Z,7.60
2022-11-20T18:58:20.802Z,7.53
2022-11-20T19:08:35.731Z,7.32
2022-11-20T19:13:37.834Z,7.32
2022-11-20T19:18:39.837Z,7.28
2022-11-20T19:23:41.512Z,7.25
2022-11-20T19:28:43.285Z,7.28
2022-11-20T19:33:45.367Z,7.28
2022-11-20T19:38:50.231Z,7.27
2022-11-20T19:43:51.813Z,7.39
2022-11-20T19:48:55.181Z,7.47
2022-11-20T19:53:57.752Z,7.40
2022-11-20T19:58:59.420Z,7.43
2022-11-20T20:04:02.621Z,7.41
2022-11-20T20:09:09.933Z,7.45
2022-11-20T20:14:14.790Z,7.51
2022-11-20T20:19:17.541Z,7.55
2022-11-20T20:24:24.983Z,7.58
2022-11-20T20:29:26.817Z,7.61
2022-11-20T20:34:31.340Z,7.51
2022-11-20T20:39:32.832Z,7.51
2022-11-20T20:44:52.832Z,7.52
2022-11-20T20:49:57.383Z,7.48
2022-11-20T20:54:59.050Z,7.47
2022-11-20T21:00:00.875Z,7.47
2022-11-20T21:05:03.856Z,7.50
2022-11-20T21:10:06.486Z,7.49
2022-11-20T21:15:08.434Z,7.50
2022-11-20T21:20:31.530Z,7.51
2022-11-20T21:25:37.212Z,7.52
2022-11-20T21:30:38.689Z,7.57
2022-11-20T21:35:41.350Z,7.57
2022-11-20T21:40:42.882Z,7.51
2022-11-20T21:45:44.301Z,7.51
2022-11-20T21:50:45.659Z,7.52
2022-11-20T21:55:56.853Z,7.50
2022-11-20T22:00:58.303Z,7.46
2022-11-20T22:05:59.881Z,7.48
2022-11-20T22:11:04.081Z,7.51
2022-11-20T22:16:05.791Z,7.52
2022-11-20T22:21:07.405Z,7.53
2022-11-20T22:26:11.181Z,7.49
2022-11-20T22:31:12.523Z,7.49
2022-11-20T22:36:16.813Z,7.51
2022-11-20T22:41:20.657Z,7.51
2022-11-20T22:46:22.842Z,7.54
2022-11-20T22:51:32.775Z,7.54
2022-11-20T22:56:34.915Z,7.54
2022-11-20T23:01:37.172Z,7.58
2022-11-20T23:06:39.102Z,7.60
2022-11-20T23:11:40.522Z,7.59
2022-11-20T23:16:42.212Z,7.62
2022-11-20T23:21:43.770Z,7.66
2022-11-20T23:26:47.168Z,7.68
2022-11-20T23:31:48.645Z,7.69
2022-11-20T23:36:50.094Z,7.80
2022-11-20T23:41:53.943Z,7.78
2022-11-20T23:46:55.508Z,7.84
2022-11-20T23:51:57.514Z,7.85
2022-11-20T23:56:59.041Z,8.01
